sensor_id;sensor_type;location;lat;lon;timestamp;P1;durP1;ratioP1;P2;durP2;ratioP2
29816;SDS011;16805;52.956;5.906;2023-12-07T00:00:11;5.13;;;3.30;;
29816;SDS011;16805;52.956;5.906;2023-12-07T00:02:38;5.57;;;4.07;;
29816;SDS011;16805;52.956;5.906;2023-12-07T00:05:04;6.05;;;3.70;;
29816;SDS011;16805;52.956;5.906;2023-12-07T00:07:30;4.97;;;3.65;;
29816;SDS011;16805;52.956;5.906;2023-12-07T00:09:55;9.00;;;3.42;;
29816;SDS011;16805;52.956;5.906;2023-12-07T00:12:21;8.20;;;3.78;;
29816;SDS011;16805;52.956;5.906;2023-12-07T00:14:47;4.07;;;3.60;;
29816;SDS011;16805;52.956;5.906;2023-12-07T00:17:12;5.20;;;3.83;;
29816;SDS011;16805;52.956;5.906;2023-12-07T00:19:39;5.32;;;3.00;;
29816;SDS011;16805;52.956;5.906;2023-12-07T00:22:05;4.47;;;3.50;;
29816;SDS011;16805;52.956;5.906;2023-12-07T00:24:31;5.30;;;3.58;;
29816;SDS011;16805;52.956;5.906;2023-12-07T00:26:58;4.65;;;3.33;;
29816;SDS011;16805;52.956;5.906;2023-12-07T00:29:24;6.90;;;4.05;;
29816;SDS011;16805;52.956;5.906;2023-12-07T00:31:49;4.47;;;3.13;;
29816;SDS011;16805;52.956;5.906;2023-12-07T00:34:17;4.75;;;3.40;;
29816;SDS011;16805;52.956;5.906;2023-12-07T00:36:43;4.80;;;3.40;;
29816;SDS011;16805;52.956;5.906;2023-12-07T00:39:09;5.80;;;4.38;;
29816;SDS011;16805;52.956;5.906;2023-12-07T00:41:35;6.32;;;3.88;;
29816;SDS011;16805;52.956;5.906;2023-12-07T00:44:01;5.57;;;4.25;;
29816;SDS011;16805;52.956;5.906;2023-12-07T00:46:27;7.43;;;4.70;;
29816;SDS011;16805;52.956;5.906;2023-12-07T00:48:53;5.50;;;4.20;;
29816;SDS011;16805;52.956;5.906;2023-12-07T00:51:19;5.60;;;4.18;;
29816;SDS011;16805;52.956;5.906;2023-12-07T00:53:46;4.78;;;3.58;;
29816;SDS011;16805;52.956;5.906;2023-12-07T00:56:12;5.15;;;3.90;;
29816;SDS011;16805;52.956;5.906;2023-12-07T00:58:38;4.32;;;3.58;;
29816;SDS011;16805;52.956;5.906;2023-12-07T01:01:04;4.13;;;3.22;;
29816;SDS011;16805;52.956;5.906;2023-12-07T01:03:30;7.20;;;3.47;;
29816;SDS011;16805;52.956;5.906;2023-12-07T01:05:55;4.82;;;3.45;;
29816;SDS011;16805;52.956;5.906;2023-12-07T01:08:21;5.60;;;3.60;;
29816;SDS011;16805;52.956;5.906;2023-12-07T01:10:47;7.80;;;4.57;;
29816;SDS011;16805;52.956;5.906;2023-12-07T01:13:12;3.88;;;3.45;;
29816;SDS011;16805;52.956;5.906;2023-12-07T01:15:38;5.03;;;3.72;;
29816;SDS011;16805;52.956;5.906;2023-12-07T01:18:04;6.72;;;3.70;;
29816;SDS011;16805;52.956;5.906;2023-12-07T01:20:29;6.05;;;3.90;;
29816;SDS011;16805;52.956;5.906;2023-12-07T01:22:55;4.05;;;3.53;;
29816;SDS011;16805;52.956;5.906;2023-12-07T01:25:21;4.70;;;3.80;;
29816;SDS011;16805;52.956;5.906;2023-12-07T01:27:47;5.63;;;4.35;;
29816;SDS011;16805;52.956;5.906;2023-12-07T01:30:13;4.35;;;3.42;;
29816;SDS011;16805;52.956;5.906;2023-12-07T01:32:44;5.93;;;4.30;;
29816;SDS011;16805;52.956;5.906;2023-12-07T01:35:10;5.65;;;4.50;;
29816;SDS011;16805;52.956;5.906;2023-12-07T01:37:36;5.18;;;2.92;;
29816;SDS011;16805;52.956;5.906;2023-12-07T01:40:02;6.00;;;4.10;;
29816;SDS011;16805;52.956;5.906;2023-12-07T01:42:30;5.32;;;3.90;;
29816;SDS011;16805;52.956;5.906;2023-12-07T01:44:56;4.93;;;3.60;;
29816;SDS011;16805;52.956;5.906;2023-12-07T01:47:22;4.75;;;3.95;;
29816;SDS011;16805;52.956;5.906;2023-12-07T01:49:47;5.20;;;3.97;;
29816;SDS011;16805;52.956;5.906;2023-12-07T01:52:13;6.93;;;3.90;;
29816;SDS011;16805;52.956;5.906;2023-12-07T01:54:39;4.10;;;3.25;;
29816;SDS011;16805;52.956;5.906;2023-12-07T01:57:05;6.07;;;4.03;;
29816;SDS011;16805;52.956;5.906;2023-12-07T01:59:32;5.00;;;4.05;;
29816;SDS011;16805;52.956;5.906;2023-12-07T02:01:58;8.77;;;4.35;;
29816;SDS011;16805;52.956;5.906;2023-12-07T02:04:24;4.93;;;3.40;;
29816;SDS011;16805;52.956;5.906;2023-12-07T02:06:50;12.40;;;4.00;;
29816;SDS011;16805;52.956;5.906;2023-12-07T02:09:18;4.82;;;3.95;;
29816;SDS011;16805;52.956;5.906;2023-12-07T02:11:44;5.90;;;4.05;;
29816;SDS011;16805;52.956;5.906;2023-12-07T02:14:11;6.28;;;3.15;;
29816;SDS011;16805;52.956;5.906;2023-12-07T02:17:14;4.45;;;3.90;;
29816;SDS011;16805;52.956;5.906;2023-12-07T02:19:47;6.55;;;3.45;;
29816;SDS011;16805;52.956;5.906;2023-12-07T02:22:55;3.47;;;2.88;;
29816;SDS011;16805;52.956;5.906;2023-12-07T02:25:23;5.85;;;2.83;;
29816;SDS011;16805;52.956;5.906;2023-12-07T02:27:56;5.05;;;4.20;;
29816;SDS011;16805;52.956;5.906;2023-12-07T02:30:22;5.43;;;3.90;;
29816;SDS011;16805;52.956;5.906;2023-12-07T02:32:47;5.57;;;4.00;;
29816;SDS011;16805;52.956;5.906;2023-12-07T02:35:13;6.05;;;4.70;;
29816;SDS011;16805;52.956;5.906;2023-12-07T02:37:41;5.53;;;3.92;;
29816;SDS011;16805;52.956;5.906;2023-12-07T02:40:14;4.88;;;3.63;;
29816;SDS011;16805;52.956;5.906;2023-12-07T02:42:45;5.13;;;3.15;;
29816;SDS011;16805;52.956;5.906;2023-12-07T02:45:12;10.13;;;4.25;;
29816;SDS011;16805;52.956;5.906;2023-12-07T02:47:38;5.75;;;3.80;;
29816;SDS011;16805;52.956;5.906;2023-12-07T02:50:05;5.95;;;3.75;;
29816;SDS011;16805;52.956;5.906;2023-12-07T02:52:32;5.57;;;4.55;;
29816;SDS011;16805;52.956;5.906;2023-12-07T02:54:58;5.13;;;4.22;;
29816;SDS011;16805;52.956;5.906;2023-12-07T02:57:23;6.72;;;3.63;;
29816;SDS011;16805;52.956;5.906;2023-12-07T02:59:49;5.35;;;4.30;;
29816;SDS011;16805;52.956;5.906;2023-12-07T03:02:15;5.32;;;4.55;;
29816;SDS011;16805;52.956;5.906;2023-12-07T03:04:40;6.35;;;4.20;;
29816;SDS011;16805;52.956;5.906;2023-12-07T03:07:06;5.78;;;3.92;;
29816;SDS011;16805;52.956;5.906;2023-12-07T03:09:32;7.85;;;4.22;;
29816;SDS011;16805;52.956;5.906;2023-12-07T03:11:58;8.18;;;4.55;;
29816;SDS011;16805;52.956;5.906;2023-12-07T03:14:23;4.97;;;4.07;;
29816;SDS011;16805;52.956;5.906;2023-12-07T03:16:49;4.25;;;3.85;;
29816;SDS011;16805;52.956;5.906;2023-12-07T03:19:14;5.63;;;3.83;;
29816;SDS011;16805;52.956;5.906;2023-12-07T03:21:40;5.63;;;3.13;;
29816;SDS011;16805;52.956;5.906;2023-12-07T03:24:07;4.03;;;3.42;;
29816;SDS011;16805;52.956;5.906;2023-12-07T03:26:34;4.93;;;3.60;;
29816;SDS011;16805;52.956;5.906;2023-12-07T03:29:00;6.40;;;4.25;;
29816;SDS011;16805;52.956;5.906;2023-12-07T03:31:27;5.47;;;4.32;;
29816;SDS011;16805;52.956;5.906;2023-12-07T03:33:54;4.43;;;3.85;;
29816;SDS011;16805;52.956;5.906;2023-12-07T03:36:20;5.65;;;4.18;;
29816;SDS011;16805;52.956;5.906;2023-12-07T03:38:47;5.05;;;3.65;;
29816;SDS011;16805;52.956;5.906;2023-12-07T03:41:13;5.18;;;4.22;;
29816;SDS011;16805;52.956;5.906;2023-12-07T03:43:39;5.75;;;3.65;;
29816;SDS011;16805;52.956;5.906;2023-12-07T03:46:05;5.35;;;3.78;;
29816;SDS011;16805;52.956;5.906;2023-12-07T03:48:32;5.10;;;4.05;;
29816;SDS011;16805;52.956;5.906;2023-12-07T03:50:58;5.78;;;4.47;;
29816;SDS011;16805;52.956;5.906;2023-12-07T03:53:24;7.10;;;4.38;;
29816;SDS011;16805;52.956;5.906;2023-12-07T03:55:52;6.00;;;3.58;;
29816;SDS011;16805;52.956;5.906;2023-12-07T03:58:18;6.50;;;3.38;;
29816;SDS011;16805;52.956;5.906;2023-12-07T04:00:45;4.25;;;3.45;;
29816;SDS011;16805;52.956;5.906;2023-12-07T04:03:11;5.15;;;3.90;;
29816;SDS011;16805;52.956;5.906;2023-12-07T04:05:38;4.75;;;3.70;;
29816;SDS011;16805;52.956;5.906;2023-12-07T04:08:04;5.13;;;3.78;;
29816;SDS011;16805;52.956;5.906;2023-12-07T04:10:33;4.72;;;3.33;;
29816;SDS011;16805;52.956;5.906;2023-12-07T04:12:59;4.47;;;4.00;;
29816;SDS011;16805;52.956;5.906;2023-12-07T04:15:24;4.68;;;3.70;;
29816;SDS011;16805;52.956;5.906;2023-12-07T04:17:50;4.10;;;3.25;;
29816;SDS011;16805;52.956;5.906;2023-12-07T04:20:17;5.40;;;3.33;;
29816;SDS011;16805;52.956;5.906;2023-12-07T04:22:43;6.03;;;3.92;;
29816;SDS011;16805;52.956;5.906;2023-12-07T04:25:10;6.57;;;3.95;;
29816;SDS011;16805;52.956;5.906;2023-12-07T04:27:36;6.35;;;4.60;;
29816;SDS011;16805;52.956;5.906;2023-12-07T04:30:03;6.05;;;3.65;;
29816;SDS011;16805;52.956;5.906;2023-12-07T04:32:30;3.85;;;2.95;;
29816;SDS011;16805;52.956;5.906;2023-12-07T04:34:55;5.13;;;3.35;;
29816;SDS011;16805;52.956;5.906;2023-12-07T04:37:21;5.13;;;3.83;;
29816;SDS011;16805;52.956;5.906;2023-12-07T04:39:46;6.55;;;4.38;;
29816;SDS011;16805;52.956;5.906;2023-12-07T04:42:12;5.00;;;3.90;;
29816;SDS011;16805;52.956;5.906;2023-12-07T04:44:38;4.95;;;3.65;;
29816;SDS011;16805;52.956;5.906;2023-12-07T04:47:04;5.82;;;4.05;;
29816;SDS011;16805;52.956;5.906;2023-12-07T04:49:30;6.45;;;4.32;;
29816;SDS011;16805;52.956;5.906;2023-12-07T04:51:55;5.13;;;3.50;;
29816;SDS011;16805;52.956;5.906;2023-12-07T04:54:21;5.85;;;4.53;;
29816;SDS011;16805;52.956;5.906;2023-12-07T04:56:48;7.03;;;3.92;;
29816;SDS011;16805;52.956;5.906;2023-12-07T04:59:14;5.63;;;3.88;;
29816;SDS011;16805;52.956;5.906;2023-12-07T05:01:42;6.47;;;4.18;;
29816;SDS011;16805;52.956;5.906;2023-12-07T05:04:08;7.32;;;4.25;;
29816;SDS011;16805;52.956;5.906;2023-12-07T05:06:34;5.65;;;4.47;;
29816;SDS011;16805;52.956;5.906;2023-12-07T05:09:00;5.15;;;4.15;;
29816;SDS011;16805;52.956;5.906;2023-12-07T05:11:26;4.95;;;3.90;;
29816;SDS011;16805;52.956;5.906;2023-12-07T05:13:52;6.50;;;4.47;;
29816;SDS011;16805;52.956;5.906;2023-12-07T05:16:17;6.13;;;4.40;;
29816;SDS011;16805;52.956;5.906;2023-12-07T05:18:43;4.50;;;3.10;;
29816;SDS011;16805;52.956;5.906;2023-12-07T05:21:09;5.10;;;3.63;;
29816;SDS011;16805;52.956;5.906;2023-12-07T05:23:35;4.60;;;3.33;;
29816;SDS011;16805;52.956;5.906;2023-12-07T05:26:00;6.07;;;4.00;;
29816;SDS011;16805;52.956;5.906;2023-12-07T05:28:26;10.77;;;3.78;;
29816;SDS011;16805;52.956;5.906;2023-12-07T05:30:52;5.53;;;4.00;;
29816;SDS011;16805;52.956;5.906;2023-12-07T05:33:18;8.27;;;4.32;;
29816;SDS011;16805;52.956;5.906;2023-12-07T05:35:46;8.02;;;4.45;;
29816;SDS011;16805;52.956;5.906;2023-12-07T05:38:13;7.65;;;4.63;;
29816;SDS011;16805;52.956;5.906;2023-12-07T05:40:38;8.15;;;5.40;;
29816;SDS011;16805;52.956;5.906;2023-12-07T05:43:04;8.40;;;5.50;;
29816;SDS011;16805;52.956;5.906;2023-12-07T05:45:30;9.63;;;6.47;;
29816;SDS011;16805;52.956;5.906;2023-12-07T05:47:55;9.80;;;7.07;;
29816;SDS011;16805;52.956;5.906;2023-12-07T05:50:21;9.20;;;6.13;;
29816;SDS011;16805;52.956;5.906;2023-12-07T05:52:47;9.35;;;6.20;;
29816;SDS011;16805;52.956;5.906;2023-12-07T05:55:12;8.70;;;6.55;;
29816;SDS011;16805;52.956;5.906;2023-12-07T05:57:38;11.68;;;7.65;;
29816;SDS011;16805;52.956;5.906;2023-12-07T06:00:05;9.15;;;6.70;;
29816;SDS011;16805;52.956;5.906;2023-12-07T06:02:34;13.20;;;8.68;;
29816;SDS011;16805;52.956;5.906;2023-12-07T06:05:02;10.75;;;6.88;;
29816;SDS011;16805;52.956;5.906;2023-12-07T06:07:30;9.23;;;5.93;;
29816;SDS011;16805;52.956;5.906;2023-12-07T06:09:56;9.65;;;6.63;;
29816;SDS011;16805;52.956;5.906;2023-12-07T06:12:22;8.95;;;6.43;;
29816;SDS011;16805;52.956;5.906;2023-12-07T06:14:48;8.75;;;5.50;;
29816;SDS011;16805;52.956;5.906;2023-12-07T06:17:14;8.50;;;5.80;;
29816;SDS011;16805;52.956;5.906;2023-12-07T06:19:40;8.45;;;5.75;;
29816;SDS011;16805;52.956;5.906;2023-12-07T06:22:05;5.75;;;5.05;;
29816;SDS011;16805;52.956;5.906;2023-12-07T06:24:31;9.30;;;5.35;;
29816;SDS011;16805;52.956;5.906;2023-12-07T06:26:57;7.63;;;4.70;;
29816;SDS011;16805;52.956;5.906;2023-12-07T06:29:23;5.80;;;4.35;;
29816;SDS011;16805;52.956;5.906;2023-12-07T06:31:49;9.02;;;4.97;;
29816;SDS011;16805;52.956;5.906;2023-12-07T06:34:16;7.95;;;4.47;;
29816;SDS011;16805;52.956;5.906;2023-12-07T06:36:41;6.70;;;4.20;;
29816;SDS011;16805;52.956;5.906;2023-12-07T06:39:08;8.52;;;5.22;;
29816;SDS011;16805;52.956;5.906;2023-12-07T06:41:34;6.93;;;5.18;;
29816;SDS011;16805;52.956;5.906;2023-12-07T06:44:01;7.85;;;4.95;;
29816;SDS011;16805;52.956;5.906;2023-12-07T06:46:29;10.15;;;6.95;;
29816;SDS011;16805;52.956;5.906;2023-12-07T06:48:54;10.00;;;6.22;;
29816;SDS011;16805;52.956;5.906;2023-12-07T06:51:20;11.32;;;6.75;;
29816;SDS011;16805;52.956;5.906;2023-12-07T06:53:48;12.00;;;7.32;;
29816;SDS011;16805;52.956;5.906;2023-12-07T06:56:14;22.27;;;7.28;;
29816;SDS011;16805;52.956;5.906;2023-12-07T06:58:40;10.65;;;6.43;;
29816;SDS011;16805;52.956;5.906;2023-12-07T07:01:05;8.10;;;5.95;;
29816;SDS011;16805;52.956;5.906;2023-12-07T07:03:32;9.10;;;7.30;;
29816;SDS011;16805;52.956;5.906;2023-12-07T07:05:58;8.05;;;5.80;;
29816;SDS011;16805;52.956;5.906;2023-12-07T07:08:24;10.88;;;7.97;;
29816;SDS011;16805;52.956;5.906;2023-12-07T07:10:50;17.35;;;8.38;;
29816;SDS011;16805;52.956;5.906;2023-12-07T07:13:16;11.25;;;6.95;;
29816;SDS011;16805;52.956;5.906;2023-12-07T07:15:42;11.77;;;7.32;;
29816;SDS011;16805;52.956;5.906;2023-12-07T07:18:11;11.00;;;7.32;;
29816;SDS011;16805;52.956;5.906;2023-12-07T07:20:36;12.50;;;6.75;;
29816;SDS011;16805;52.956;5.906;2023-12-07T07:23:05;9.93;;;6.22;;
29816;SDS011;16805;52.956;5.906;2023-12-07T07:25:30;12.77;;;7.78;;
29816;SDS011;16805;52.956;5.906;2023-12-07T07:27:57;11.18;;;7.75;;
29816;SDS011;16805;52.956;5.906;2023-12-07T07:30:23;11.20;;;7.00;;
29816;SDS011;16805;52.956;5.906;2023-12-07T07:32:50;9.23;;;7.35;;
29816;SDS011;16805;52.956;5.906;2023-12-07T07:35:15;9.40;;;6.90;;
29816;SDS011;16805;52.956;5.906;2023-12-07T07:37:42;13.25;;;7.88;;
29816;SDS011;16805;52.956;5.906;2023-12-07T07:40:12;11.50;;;7.32;;
29816;SDS011;16805;52.956;5.906;2023-12-07T07:42:39;9.95;;;7.43;;
29816;SDS011;16805;52.956;5.906;2023-12-07T07:45:05;10.82;;;7.22;;
29816;SDS011;16805;52.956;5.906;2023-12-07T07:47:32;10.00;;;7.03;;
29816;SDS011;16805;52.956;5.906;2023-12-07T07:49:57;9.10;;;7.30;;
29816;SDS011;16805;52.956;5.906;2023-12-07T07:52:24;12.27;;;7.35;;
29816;SDS011;16805;52.956;5.906;2023-12-07T07:54:49;11.25;;;7.22;;
29816;SDS011;16805;52.956;5.906;2023-12-07T07:57:16;10.82;;;7.13;;
29816;SDS011;16805;52.956;5.906;2023-12-07T07:59:42;9.40;;;7.63;;
29816;SDS011;16805;52.956;5.906;2023-12-07T08:02:08;12.68;;;8.05;;
29816;SDS011;16805;52.956;5.906;2023-12-07T08:04:34;13.20;;;8.45;;
29816;SDS011;16805;52.956;5.906;2023-12-07T08:07:00;14.85;;;8.65;;
29816;SDS011;16805;52.956;5.906;2023-12-07T08:09:25;12.48;;;8.50;;
29816;SDS011;16805;52.956;5.906;2023-12-07T08:11:51;20.27;;;10.02;;
29816;SDS011;16805;52.956;5.906;2023-12-07T08:14:16;12.55;;;8.23;;
29816;SDS011;16805;52.956;5.906;2023-12-07T08:16:44;13.77;;;8.98;;
29816;SDS011;16805;52.956;5.906;2023-12-07T08:19:11;12.32;;;8.82;;
29816;SDS011;16805;52.956;5.906;2023-12-07T08:21:40;19.73;;;10.52;;
29816;SDS011;16805;52.956;5.906;2023-12-07T08:24:06;12.25;;;7.93;;
29816;SDS011;16805;52.956;5.906;2023-12-07T08:26:32;19.48;;;10.07;;
29816;SDS011;16805;52.956;5.906;2023-12-07T08:28:57;14.00;;;9.52;;
29816;SDS011;16805;52.956;5.906;2023-12-07T08:31:23;10.63;;;8.18;;
29816;SDS011;16805;52.956;5.906;2023-12-07T08:33:51;15.30;;;9.57;;
29816;SDS011;16805;52.956;5.906;2023-12-07T08:36:16;15.88;;;9.60;;
29816;SDS011;16805;52.956;5.906;2023-12-07T08:38:42;14.85;;;8.95;;
29816;SDS011;16805;52.956;5.906;2023-12-07T08:41:08;13.82;;;8.50;;
29816;SDS011;16805;52.956;5.906;2023-12-07T08:43:35;10.80;;;8.23;;
29816;SDS011;16805;52.956;5.906;2023-12-07T08:46:04;12.88;;;8.73;;
29816;SDS011;16805;52.956;5.906;2023-12-07T08:48:32;13.98;;;7.75;;
29816;SDS011;16805;52.956;5.906;2023-12-07T08:50:59;15.50;;;9.55;;
29816;SDS011;16805;52.956;5.906;2023-12-07T08:53:24;12.90;;;9.07;;
29816;SDS011;16805;52.956;5.906;2023-12-07T08:55:52;13.63;;;8.07;;
29816;SDS011;16805;52.956;5.906;2023-12-07T08:58:18;12.98;;;8.98;;
29816;SDS011;16805;52.956;5.906;2023-12-07T09:00:51;11.05;;;8.82;;
29816;SDS011;16805;52.956;5.906;2023-12-07T09:03:20;13.25;;;9.25;;
29816;SDS011;16805;52.956;5.906;2023-12-07T09:05:53;11.57;;;8.45;;
29816;SDS011;16805;52.956;5.906;2023-12-07T09:08:23;11.73;;;8.77;;
29816;SDS011;16805;52.956;5.906;2023-12-07T09:10:48;12.68;;;8.73;;
29816;SDS011;16805;52.956;5.906;2023-12-07T09:13:17;20.63;;;9.60;;
29816;SDS011;16805;52.956;5.906;2023-12-07T09:15:43;12.18;;;8.95;;
29816;SDS011;16805;52.956;5.906;2023-12-07T09:18:08;14.32;;;9.38;;
29816;SDS011;16805;52.956;5.906;2023-12-07T09:20:36;14.77;;;10.10;;
29816;SDS011;16805;52.956;5.906;2023-12-07T09:23:02;15.70;;;10.52;;
29816;SDS011;16805;52.956;5.906;2023-12-07T09:25:28;23.30;;;9.38;;
29816;SDS011;16805;52.956;5.906;2023-12-07T09:27:55;15.25;;;10.00;;
29816;SDS011;16805;52.956;5.906;2023-12-07T09:30:21;15.75;;;9.02;;
29816;SDS011;16805;52.956;5.906;2023-12-07T09:32:47;15.40;;;8.70;;
29816;SDS011;16805;52.956;5.906;2023-12-07T09:35:13;11.00;;;8.25;;
29816;SDS011;16805;52.956;5.906;2023-12-07T09:37:40;11.07;;;9.07;;
29816;SDS011;16805;52.956;5.906;2023-12-07T09:40:06;14.82;;;10.13;;
29816;SDS011;16805;52.956;5.906;2023-12-07T09:42:32;15.82;;;10.13;;
29816;SDS011;16805;52.956;5.906;2023-12-07T09:44:58;14.45;;;9.52;;
29816;SDS011;16805;52.956;5.906;2023-12-07T09:47:25;14.65;;;10.00;;
29816;SDS011;16805;52.956;5.906;2023-12-07T09:49:52;16.75;;;10.48;;
29816;SDS011;16805;52.956;5.906;2023-12-07T09:52:18;17.13;;;11.38;;
29816;SDS011;16805;52.956;5.906;2023-12-07T09:54:46;11.32;;;8.57;;
29816;SDS011;16805;52.956;5.906;2023-12-07T09:57:12;20.58;;;9.38;;
29816;SDS011;16805;52.956;5.906;2023-12-07T09:59:39;12.45;;;8.90;;
29816;SDS011;16805;52.956;5.906;2023-12-07T10:02:06;22.33;;;10.57;;
29816;SDS011;16805;52.956;5.906;2023-12-07T10:04:32;13.52;;;9.82;;
29816;SDS011;16805;52.956;5.906;2023-12-07T10:06:58;11.73;;;8.63;;
29816;SDS011;16805;52.956;5.906;2023-12-07T10:09:23;17.35;;;9.18;;
29816;SDS011;16805;52.956;5.906;2023-12-07T10:11:51;13.02;;;9.23;;
29816;SDS011;16805;52.956;5.906;2023-12-07T10:14:27;16.00;;;11.80;;
29816;SDS011;16805;52.956;5.906;2023-12-07T10:16:53;14.80;;;10.18;;
29816;SDS011;16805;52.956;5.906;2023-12-07T10:19:23;12.43;;;9.13;;
29816;SDS011;16805;52.956;5.906;2023-12-07T10:21:50;11.57;;;7.53;;
29816;SDS011;16805;52.956;5.906;2023-12-07T10:24:20;13.60;;;9.82;;
29816;SDS011;16805;52.956;5.906;2023-12-07T10:26:47;18.67;;;10.63;;
29816;SDS011;16805;52.956;5.906;2023-12-07T10:29:14;12.43;;;9.43;;
29816;SDS011;16805;52.956;5.906;2023-12-07T10:31:42;14.88;;;10.40;;
29816;SDS011;16805;52.956;5.906;2023-12-07T10:34:09;14.65;;;10.60;;
29816;SDS011;16805;52.956;5.906;2023-12-07T10:36:34;17.05;;;12.50;;
29816;SDS011;16805;52.956;5.906;2023-12-07T10:39:00;15.02;;;9.65;;
29816;SDS011;16805;52.956;5.906;2023-12-07T10:41:31;15.40;;;10.77;;
29816;SDS011;16805;52.956;5.906;2023-12-07T10:43:59;14.00;;;8.57;;
29816;SDS011;16805;52.956;5.906;2023-12-07T10:46:26;12.48;;;9.55;;
29816;SDS011;16805;52.956;5.906;2023-12-07T10:48:55;13.52;;;9.85;;
29816;SDS011;16805;52.956;5.906;2023-12-07T10:51:29;10.05;;;8.77;;
29816;SDS011;16805;52.956;5.906;2023-12-07T10:53:59;11.40;;;8.88;;
29816;SDS011;16805;52.956;5.906;2023-12-07T10:56:29;12.93;;;8.40;;
29816;SDS011;16805;52.956;5.906;2023-12-07T10:59:11;10.65;;;7.25;;
29816;SDS011;16805;52.956;5.906;2023-12-07T11:01:40;9.90;;;7.40;;
29816;SDS011;16805;52.956;5.906;2023-12-07T11:04:10;11.60;;;9.45;;
29816;SDS011;16805;52.956;5.906;2023-12-07T11:06:37;12.27;;;7.90;;
29816;SDS011;16805;52.956;5.906;2023-12-07T11:09:08;17.70;;;12.43;;
29816;SDS011;16805;52.956;5.906;2023-12-07T11:14:42;20.90;;;12.70;;
29816;SDS011;16805;52.956;5.906;2023-12-07T11:17:08;27.23;;;13.15;;
29816;SDS011;16805;52.956;5.906;2023-12-07T11:22:09;19.25;;;9.18;;
29816;SDS011;16805;52.956;5.906;2023-12-07T11:24:35;10.63;;;7.20;;
29816;SDS011;16805;52.956;5.906;2023-12-07T11:27:01;8.32;;;5.75;;
29816;SDS011;16805;52.956;5.906;2023-12-07T11:29:31;11.65;;;9.20;;
29816;SDS011;16805;52.956;5.906;2023-12-07T11:32:04;10.65;;;9.43;;
29816;SDS011;16805;52.956;5.906;2023-12-07T11:34:37;12.60;;;8.23;;
29816;SDS011;16805;52.956;5.906;2023-12-07T11:37:03;11.52;;;8.82;;
29816;SDS011;16805;52.956;5.906;2023-12-07T11:39:34;9.65;;;7.72;;
29816;SDS011;16805;52.956;5.906;2023-12-07T11:42:06;11.38;;;8.45;;
29816;SDS011;16805;52.956;5.906;2023-12-07T11:44:36;13.15;;;7.38;;
29816;SDS011;16805;52.956;5.906;2023-12-07T11:47:03;8.35;;;6.57;;
29816;SDS011;16805;52.956;5.906;2023-12-07T11:49:29;13.55;;;10.82;;
29816;SDS011;16805;52.956;5.906;2023-12-07T11:51:56;11.57;;;8.55;;
29816;SDS011;16805;52.956;5.906;2023-12-07T11:54:28;12.82;;;9.50;;
29816;SDS011;16805;52.956;5.906;2023-12-07T11:56:56;14.02;;;9.52;;
29816;SDS011;16805;52.956;5.906;2023-12-07T11:59:22;15.50;;;10.27;;
29816;SDS011;16805;52.956;5.906;2023-12-07T12:01:50;15.63;;;11.95;;
29816;SDS011;16805;52.956;5.906;2023-12-07T12:04:16;16.10;;;9.98;;
29816;SDS011;16805;52.956;5.906;2023-12-07T12:06:45;15.10;;;10.88;;
29816;SDS011;16805;52.956;5.906;2023-12-07T12:09:14;16.40;;;9.55;;
29816;SDS011;16805;52.956;5.906;2023-12-07T12:11:48;14.27;;;10.52;;
29816;SDS011;16805;52.956;5.906;2023-12-07T12:14:15;15.48;;;10.63;;
29816;SDS011;16805;52.956;5.906;2023-12-07T12:16:41;16.70;;;12.00;;
29816;SDS011;16805;52.956;5.906;2023-12-07T12:19:11;17.92;;;13.18;;
29816;SDS011;16805;52.956;5.906;2023-12-07T12:21:37;22.13;;;13.65;;
29816;SDS011;16805;52.956;5.906;2023-12-07T12:24:08;13.75;;;9.43;;
29816;SDS011;16805;52.956;5.906;2023-12-07T12:26:36;19.90;;;13.82;;
29816;SDS011;16805;52.956;5.906;2023-12-07T12:29:04;17.00;;;9.27;;
29816;SDS011;16805;52.956;5.906;2023-12-07T12:31:30;15.90;;;10.55;;
29816;SDS011;16805;52.956;5.906;2023-12-07T12:33:56;15.93;;;8.85;;
29816;SDS011;16805;52.956;5.906;2023-12-07T12:36:21;16.92;;;12.90;;
29816;SDS011;16805;52.956;5.906;2023-12-07T12:38:51;18.38;;;12.43;;
29816;SDS011;16805;52.956;5.906;2023-12-07T12:41:19;17.65;;;10.68;;
29816;SDS011;16805;52.956;5.906;2023-12-07T12:43:46;29.70;;;15.48;;
29816;SDS011;16805;52.956;5.906;2023-12-07T12:46:12;12.43;;;9.82;;
29816;SDS011;16805;52.956;5.906;2023-12-07T12:49:00;20.83;;;10.43;;
29816;SDS011;16805;52.956;5.906;2023-12-07T12:51:26;15.55;;;10.43;;
29816;SDS011;16805;52.956;5.906;2023-12-07T12:53:53;13.85;;;9.23;;
29816;SDS011;16805;52.956;5.906;2023-12-07T12:56:20;12.73;;;9.35;;
29816;SDS011;16805;52.956;5.906;2023-12-07T12:58:46;10.88;;;7.30;;
29816;SDS011;16805;52.956;5.906;2023-12-07T13:01:16;16.73;;;10.48;;
29816;SDS011;16805;52.956;5.906;2023-12-07T13:03:43;19.42;;;9.38;;
29816;SDS011;16805;52.956;5.906;2023-12-07T13:06:15;17.48;;;10.50;;
29816;SDS011;16805;52.956;5.906;2023-12-07T13:08:45;19.15;;;11.38;;
29816;SDS011;16805;52.956;5.906;2023-12-07T13:11:14;26.90;;;14.35;;
29816;SDS011;16805;52.956;5.906;2023-12-07T13:13:41;21.98;;;12.57;;
29816;SDS011;16805;52.956;5.906;2023-12-07T13:16:07;24.70;;;14.07;;
29816;SDS011;16805;52.956;5.906;2023-12-07T13:18:32;22.58;;;12.02;;
29816;SDS011;16805;52.956;5.906;2023-12-07T13:20:58;17.52;;;11.07;;
29816;SDS011;16805;52.956;5.906;2023-12-07T13:23:24;24.10;;;12.95;;
29816;SDS011;16805;52.956;5.906;2023-12-07T13:25:50;28.80;;;14.05;;
29816;SDS011;16805;52.956;5.906;2023-12-07T13:28:16;28.98;;;15.00;;
29816;SDS011;16805;52.956;5.906;2023-12-07T13:30:42;24.92;;;11.35;;
29816;SDS011;16805;52.956;5.906;2023-12-07T13:33:07;25.75;;;13.07;;
29816;SDS011;16805;52.956;5.906;2023-12-07T13:35:34;27.13;;;14.05;;
29816;SDS011;16805;52.956;5.906;2023-12-07T13:38:00;26.52;;;10.68;;
29816;SDS011;16805;52.956;5.906;2023-12-07T13:40:26;24.98;;;12.18;;
29816;SDS011;16805;52.956;5.906;2023-12-07T13:42:52;22.40;;;12.00;;
29816;SDS011;16805;52.956;5.906;2023-12-07T13:45:18;21.98;;;11.32;;
29816;SDS011;16805;52.956;5.906;2023-12-07T13:47:44;31.95;;;14.52;;
29816;SDS011;16805;52.956;5.906;2023-12-07T13:50:10;23.58;;;14.05;;
29816;SDS011;16805;52.956;5.906;2023-12-07T13:52:36;17.00;;;11.40;;
29816;SDS011;16805;52.956;5.906;2023-12-07T13:55:03;26.25;;;13.52;;
29816;SDS011;16805;52.956;5.906;2023-12-07T13:57:29;28.77;;;13.20;;
29816;SDS011;16805;52.956;5.906;2023-12-07T13:59:55;16.02;;;9.45;;
29816;SDS011;16805;52.956;5.906;2023-12-07T14:02:21;23.75;;;11.77;;
29816;SDS011;16805;52.956;5.906;2023-12-07T14:04:47;17.83;;;9.23;;
29816;SDS011;16805;52.956;5.906;2023-12-07T14:07:20;24.25;;;13.90;;
29816;SDS011;16805;52.956;5.906;2023-12-07T14:09:48;21.50;;;12.50;;
29816;SDS011;16805;52.956;5.906;2023-12-07T14:12:15;21.83;;;11.32;;
29816;SDS011;16805;52.956;5.906;2023-12-07T14:14:42;31.02;;;14.45;;
29816;SDS011;16805;52.956;5.906;2023-12-07T14:17:09;34.75;;;16.65;;
29816;SDS011;16805;52.956;5.906;2023-12-07T14:19:35;28.05;;;14.18;;
29816;SDS011;16805;52.956;5.906;2023-12-07T14:22:01;36.28;;;14.55;;
29816;SDS011;16805;52.956;5.906;2023-12-07T14:24:27;30.38;;;13.65;;
29816;SDS011;16805;52.956;5.906;2023-12-07T14:26:53;26.50;;;12.68;;
29816;SDS011;16805;52.956;5.906;2023-12-07T14:29:19;24.52;;;13.23;;
29816;SDS011;16805;52.956;5.906;2023-12-07T14:31:46;28.60;;;13.43;;
29816;SDS011;16805;52.956;5.906;2023-12-07T14:34:13;24.88;;;13.23;;
29816;SDS011;16805;52.956;5.906;2023-12-07T14:36:39;37.03;;;15.32;;
29816;SDS011;16805;52.956;5.906;2023-12-07T14:39:06;31.05;;;14.85;;
29816;SDS011;16805;52.956;5.906;2023-12-07T14:41:32;24.05;;;13.35;;